createdAt,value
2023-05-13T00:02:11.924Z,102443.75
2023-05-13T00:04:38.681Z,102441.16
2023-05-13T00:07:05.652Z,102431.50
2023-05-13T00:09:32.377Z,102443.00
2023-05-13T00:11:59.299Z,102438.59
2023-05-13T00:14:26.018Z,102441.25
2023-05-13T00:16:52.753Z,102438.59
2023-05-13T00:19:19.524Z,102437.75
2023-05-13T00:21:46.279Z,102443.13
2023-05-13T00:24:12.989Z,102428.97
2023-05-13T00:26:39.637Z,102435.25
2023-05-13T00:29:06.362Z,102425.56
2023-05-13T00:31:33.122Z,102420.31
2023-05-13T00:33:59.869Z,102429.22
2023-05-13T00:36:27.527Z,102424.88
2023-05-13T00:38:54.266Z,102432.00
2023-05-13T00:41:22.783Z,102433.91
2023-05-13T00:43:49.532Z,102433.16
2023-05-13T00:46:16.352Z,102434.13
2023-05-13T00:48:43.746Z,102435.88
2023-05-13T00:51:10.454Z,102433.25
2023-05-13T00:53:39.233Z,102426.16
2023-05-13T00:56:08.938Z,102433.13
2023-05-13T00:58:35.715Z,102439.28
2023-05-13T01:01:45.267Z,102426.84
2023-05-13T01:04:27.440Z,102430.34
2023-05-13T01:07:12.205Z,102434.75
2023-05-13T01:10:08.279Z,102441.84
2023-05-13T01:12:41.632Z,102434.09
2023-05-13T01:15:15.947Z,102441.31
2023-05-13T01:17:51.725Z,102437.88
2023-05-13T01:20:22.618Z,102436.25
2023-05-13T01:22:50.041Z,102441.66
2023-05-13T01:25:16.729Z,102442.63
2023-05-13T01:27:43.717Z,102448.88
2023-05-13T01:30:11.425Z,102449.78
2023-05-13T01:32:38.868Z,102454.22
2023-05-13T01:35:07.600Z,102450.69
2023-05-13T01:37:35.243Z,102448.94
2023-05-13T01:40:03.382Z,102450.66
2023-05-13T01:42:37.198Z,102458.69
2023-05-13T01:45:04.365Z,102454.31
2023-05-13T01:47:31.120Z,102458.78
2023-05-13T01:49:57.789Z,102460.66
2023-05-13T01:52:24.486Z,102455.44
2023-05-13T01:54:51.165Z,102459.03
2023-05-13T01:57:17.942Z,102455.53
2023-05-13T01:59:44.612Z,102464.44
2023-05-13T02:02:11.335Z,102460.06
2023-05-13T02:04:38.090Z,102462.75
2023-05-13T02:07:05.004Z,102459.25
2023-05-13T02:09:31.785Z,102462.81
2023-05-13T02:11:58.666Z,102460.22
2023-05-13T02:14:25.332Z,102462.91
2023-05-13T02:16:52.075Z,102462.09
2023-05-13T02:19:19.832Z,102466.53
2023-05-13T02:21:46.856Z,102460.38
2023-05-13T02:24:14.079Z,102469.28
2023-05-13T02:26:41.772Z,102457.78
2023-05-13T02:29:08.620Z,102464.81
2023-05-13T02:31:36.827Z,102460.44
2023-05-13T02:34:03.799Z,102468.41
2023-05-13T02:36:30.550Z,102466.66
2023-05-13T02:38:57.605Z,102464.91
2023-05-13T02:41:24.271Z,102467.56
2023-05-13T02:43:50.984Z,102472.03
2023-05-13T02:46:17.692Z,102473.81
2023-05-13T02:48:44.365Z,102469.38
2023-05-13T02:51:11.003Z,102460.56
2023-05-13T02:53:37.652Z,102464.19
2023-05-13T02:56:04.644Z,102461.53
2023-05-13T02:58:31.327Z,102462.41
2023-05-13T03:00:58.063Z,102463.31
2023-05-13T03:03:25.014Z,102457.16
2023-05-13T03:05:51.888Z,102453.66
2023-05-13T03:08:18.619Z,102461.59
2023-05-13T03:10:45.343Z,102461.59
2023-05-13T03:13:12.016Z,102458.09
2023-05-13T03:15:38.721Z,102462.50
2023-05-13T03:18:05.641Z,102462.50
2023-05-13T03:20:32.351Z,102461.63
2023-05-13T03:22:59.059Z,102461.63
2023-05-13T03:25:25.689Z,102470.47
2023-05-13T03:27:52.355Z,102470.44
2023-05-13T03:30:19.258Z,102469.50
2023-05-13T03:32:46.087Z,102463.31
2023-05-13T03:35:12.800Z,102464.19
2023-05-13T03:37:39.615Z,102466.78
2023-05-13T03:40:06.967Z,102468.50
2023-05-13T03:42:33.739Z,102460.53
2023-05-13T03:45:00.406Z,102473.75
2023-05-13T03:47:27.126Z,102464.91
2023-05-13T03:49:53.829Z,102467.50
2023-05-13T03:52:20.494Z,102462.16
2023-05-13T03:54:47.154Z,102463.88
2023-05-13T03:57:13.901Z,102475.31
2023-05-13T03:59:41.977Z,102472.63
2023-05-13T04:02:08.734Z,102472.59
2023-05-13T04:04:35.440Z,102475.16
2023-05-13T04:07:02.114Z,102470.69
2023-05-13T04:09:28.741Z,102473.22
2023-05-13T04:11:55.390Z,102473.16
2023-05-13T04:14:22.163Z,102472.25
2023-05-13T04:16:49.085Z,102466.88
2023-05-13T04:19:15.835Z,102475.69
2023-05-13T04:21:42.501Z,102473.88
2023-05-13T04:24:09.175Z,102474.69
2023-05-13T04:26:38.236Z,102471.97
2023-05-13T04:29:04.999Z,102465.66
2023-05-13T04:31:31.865Z,102474.38
2023-05-13T04:33:58.538Z,102478.63
2023-05-13T04:36:25.263Z,102482.91
2023-05-13T04:38:51.906Z,102492.50
2023-05-13T04:41:18.561Z,102480.81
2023-05-13T04:43:45.446Z,102483.34
2023-05-13T04:46:12.147Z,102484.06
2023-05-13T04:48:38.828Z,102489.19
2023-05-13T04:51:06.018Z,102474.00
2023-05-13T04:53:33.179Z,102484.44
2023-05-13T04:56:01.096Z,102479.88
2023-05-13T04:58:28.353Z,102485.94
2023-05-13T05:00:55.071Z,102480.47
2023-05-13T05:03:22.189Z,102486.50
2023-05-13T05:05:48.986Z,102483.69
2023-05-13T05:08:16.957Z,102487.06
2023-05-13T05:10:43.608Z,102489.56
2023-05-13T05:13:11.236Z,102488.44
2023-05-13T05:15:37.938Z,102483.81
2023-05-13T05:18:06.696Z,102489.81
2023-05-13T05:20:33.517Z,102491.31
2023-05-13T05:23:00.289Z,102484.88
2023-05-13T05:25:27.139Z,102484.56
2023-05-13T05:27:53.825Z,102493.16
2023-05-13T05:30:20.938Z,102486.69
2023-05-13T05:32:47.914Z,102490.94
2023-05-13T05:35:16.320Z,102496.00
2023-05-13T05:37:42.999Z,102502.88
2023-05-13T05:40:10.150Z,102492.72
2023-05-13T05:42:36.873Z,102486.16
2023-05-13T05:45:03.736Z,102493.88
2023-05-13T05:47:30.438Z,102494.47
2023-05-13T05:49:57.102Z,102486.22
2023-05-13T05:52:23.781Z,102493.94
2023-05-13T05:54:50.475Z,102497.09
2023-05-13T05:57:17.199Z,102494.13
2023-05-13T05:59:43.912Z,102491.16
2023-05-13T06:02:10.745Z,102494.47
2023-05-13T06:04:37.515Z,102500.50
2023-05-13T06:07:04.253Z,102494.81
2023-05-13T06:09:31.130Z,102498.03
2023-05-13T06:11:57.781Z,102494.13
2023-05-13T06:14:24.488Z,102496.53
2023-05-13T06:16:51.709Z,102494.44
2023-05-13T06:19:19.122Z,102502.97
2023-05-13T06:21:45.789Z,102492.84
2023-05-13T06:24:12.529Z,102492.47
2023-05-13T06:26:39.218Z,102490.34
2023-05-13T06:29:05.917Z,102498.06
2023-05-13T06:31:32.628Z,102493.34
2023-05-13T06:33:59.286Z,102496.63
2023-05-13T06:36:26.487Z,102489.25
2023-05-13T06:38:54.059Z,102495.25
2023-05-13T06:41:20.809Z,102489.66
2023-05-13T06:43:48.918Z,102498.34
2023-05-13T06:46:15.876Z,102503.44
2023-05-13T06:48:42.552Z,102502.28
2023-05-13T06:51:09.304Z,102501.06
2023-05-13T06:53:36.061Z,102502.53
2023-05-13T06:56:02.855Z,102506.69
2023-05-13T06:58:29.516Z,102502.91
2023-05-13T07:00:56.337Z,102501.78
2023-05-13T07:03:23.498Z,102505.19
2023-05-13T07:05:50.178Z,102510.31
2023-05-13T07:08:18.178Z,102510.06
2023-05-13T07:10:45.187Z,102500.81
2023-05-13T07:13:12.027Z,102503.22
2023-05-13T07:15:38.714Z,102499.41
2023-05-13T07:18:05.826Z,102502.59
2023-05-13T07:20:32.704Z,102496.97
2023-05-13T07:22:59.410Z,102496.72
2023-05-13T07:25:26.098Z,102499.03
2023-05-13T07:27:52.795Z,102503.28
2023-05-13T07:30:19.711Z,102500.28
2023-05-13T07:32:46.465Z,102506.31
2023-05-13T07:35:13.868Z,102500.63
2023-05-13T07:37:40.558Z,102504.88
2023-05-13T07:40:08.073Z,102494.72
2023-05-13T07:42:35.028Z,102506.19
2023-05-13T07:45:01.789Z,102505.16
2023-05-13T07:47:29.306Z,102496.03
2023-05-13T07:49:56.118Z,102497.56
2023-05-13T07:52:23.499Z,102501.94
2023-05-13T07:54:50.152Z,102502.59
2023-05-13T07:57:16.919Z,102504.94
2023-05-13T07:59:44.795Z,102496.59
2023-05-13T08:02:12.601Z,102499.88
2023-05-13T08:04:39.452Z,102500.50
2023-05-13T08:07:06.273Z,102500.34
2023-05-13T08:09:32.979Z,102491.19
2023-05-13T08:11:59.613Z,102500.81
2023-05-13T08:14:26.264Z,102497.81
2023-05-13T08:16:53.117Z,102501.25
2023-05-13T08:19:20.258Z,102495.72
2023-05-13T08:21:46.979Z,102497.31
2023-05-13T08:24:13.644Z,102495.31
2023-05-13T08:26:40.317Z,102487.88
2023-05-13T08:29:07.323Z,102492.06
2023-05-13T08:31:34.064Z,102494.44
2023-05-13T08:34:00.835Z,102505.78
2023-05-13T08:36:27.548Z,102502.94
2023-05-13T08:38:54.226Z,102494.66
2023-05-13T08:41:22.920Z,102500.72
2023-05-13T08:43:50.559Z,102494.91
2023-05-13T08:46:18.592Z,102501.72
2023-05-13T08:48:45.850Z,102497.78
2023-05-13T08:51:12.895Z,102501.13
2023-05-13T08:53:40.863Z,102495.56
2023-05-13T08:56:09.753Z,102504.31
2023-05-13T08:58:36.685Z,102502.25
2023-05-13T09:01:04.277Z,102506.63
2023-05-13T09:03:31.697Z,102498.44
2023-05-13T09:06:03.394Z,102501.13
2023-05-13T09:08:30.354Z,102502.66
2023-05-13T09:10:57.943Z,102513.16
2023-05-13T09:13:24.601Z,102510.06
2023-05-13T09:15:51.999Z,102502.63
2023-05-13T09:18:19.544Z,102497.94
2023-05-13T09:20:46.558Z,102502.16
2023-05-13T09:23:13.872Z,102502.97
2023-05-13T09:25:41.629Z,102501.94
2023-05-13T09:28:08.481Z,102494.63
2023-05-13T09:30:45.596Z,102492.81
2023-05-13T09:33:15.591Z,102491.72
2023-05-13T09:35:52.946Z,102494.06
2023-05-13T09:38:29.114Z,102492.03
2023-05-13T09:40:58.580Z,102482.66
2023-05-13T09:43:32.255Z,102493.13
2023-05-13T09:46:03.577Z,102484.50
2023-05-13T09:48:33.056Z,102491.41
2023-05-13T09:50:59.954Z,102489.25
2023-05-13T09:53:27.835Z,102481.59
2023-05-13T09:55:56.599Z,102481.28
2023-05-13T09:58:24.665Z,102481.03
2023-05-13T10:00:52.573Z,102481.56
2023-05-13T10:03:19.519Z,102477.69
2023-05-13T10:05:48.555Z,102474.91
2023-05-13T10:08:17.078Z,102482.09
2023-05-13T10:10:46.132Z,102486.41
2023-05-13T10:13:16.176Z,102475.50
2023-05-13T10:15:51.162Z,102482.81
2023-05-13T10:18:19.143Z,102475.69
2023-05-13T10:20:46.967Z,102465.84
2023-05-13T10:23:14.002Z,102480.84
2023-05-13T10:25:43.367Z,102473.25
2023-05-13T10:28:10.857Z,102474.66
2023-05-13T10:30:39.063Z,102471.59
2023-05-13T10:33:06.150Z,102463.66
2023-05-13T10:35:38.600Z,102465.25
2023-05-13T10:38:33.505Z,102460.25
2023-05-13T10:41:18.629Z,102448.75
2023-05-13T10:43:45.370Z,102451.78
2023-05-13T10:46:13.579Z,102452.09
2023-05-13T10:48:43.558Z,102448.78
2023-05-13T10:51:14.909Z,102452.00
2023-05-13T10:53:50.200Z,102447.22
2023-05-13T10:56:20.321Z,102452.31
2023-05-13T10:59:04.480Z,102450.31
2023-05-13T11:01:44.071Z,102450.22
2023-05-13T11:04:18.553Z,102446.09
2023-05-13T11:06:46.552Z,102445.81
2023-05-13T11:09:31.443Z,102441.84
2023-05-13T11:11:59.804Z,102439.06
2023-05-13T11:14:28.122Z,102442.44
2023-05-13T11:17:08.518Z,102429.59
2023-05-13T11:19:37.365Z,102440.13
2023-05-13T11:22:20.367Z,102419.84
2023-05-13T11:25:08.434Z,102434.84
2023-05-13T11:27:40.515Z,102428.97
2023-05-13T11:30:20.985Z,102426.44
2023-05-13T11:33:01.781Z,102430.41
2023-05-13T11:35:33.099Z,102422.84
2023-05-13T11:38:01.640Z,102421.03
2023-05-13T11:40:36.489Z,102411.81
2023-05-13T11:43:06.396Z,102418.38
2023-05-13T11:45:34.038Z,102420.38
2023-05-13T11:48:18.323Z,102415.75
2023-05-13T11:50:45.024Z,102420.09
2023-05-13T11:53:11.701Z,102414.28
2023-05-13T11:55:38.410Z,102414.38
2023-05-13T11:58:05.055Z,102423.09
2023-05-13T12:00:33.463Z,102420.75
2023-05-13T12:03:01.705Z,102421.22
2023-05-13T12:05:28.825Z,102420.91
2023-05-13T12:07:58.940Z,102414.34
2023-05-13T12:10:26.614Z,102414.75
2023-05-13T12:12:53.788Z,102417.84
2023-05-13T12:15:22.234Z,102418.16
2023-05-13T12:17:49.800Z,102415.22
2023-05-13T12:20:17.780Z,102418.09
2023-05-13T12:22:44.361Z,102415.09
2023-05-13T12:25:48.291Z,102411.84
2023-05-13T12:28:21.149Z,102406.41
2023-05-13T12:31:02.131Z,102404.97
2023-05-13T12:33:30.238Z,102406.56
2023-05-13T12:36:26.165Z,102409.41
2023-05-13T12:39:00.199Z,102396.69
2023-05-13T12:41:32.474Z,102399.47
2023-05-13T12:44:01.213Z,102389.56
2023-05-13T12:46:28.794Z,102400.22
2023-05-13T12:48:57.611Z,102394.28
2023-05-13T12:51:24.881Z,102386.38
2023-05-13T12:53:54.193Z,102393.91
2023-05-13T12:56:22.584Z,102385.91
2023-05-13T12:58:56.026Z,102389.53
2023-05-13T13:01:22.990Z,102383.69
2023-05-13T13:03:50.077Z,102380.75
2023-05-13T13:06:17.892Z,102373.78
2023-05-13T13:08:44.695Z,102376.31
2023-05-13T13:11:14.989Z,102381.97
2023-05-13T13:13:41.803Z,102382.78
2023-05-13T13:16:09.477Z,102380.81
2023-05-13T13:18:36.501Z,102376.50
2023-05-13T13:21:03.510Z,102363.69
2023-05-13T13:23:30.234Z,102371.13
2023-05-13T13:25:59.268Z,102370.00
2023-05-13T13:28:26.704Z,102360.25
2023-05-13T13:30:53.828Z,102363.53
2023-05-13T13:33:21.146Z,102366.44
2023-05-13T13:35:49.566Z,102360.44
2023-05-13T13:38:16.293Z,102360.28
2023-05-13T13:40:42.955Z,102371.44
2023-05-13T13:43:09.694Z,102371.97
2023-05-13T13:45:36.725Z,102359.38
2023-05-13T13:48:03.706Z,102364.31
2023-05-13T13:50:30.546Z,102367.13
2023-05-13T13:52:57.303Z,102360.09
2023-05-13T13:55:24.671Z,102360.94
2023-05-13T13:57:52.236Z,102355.50
2023-05-13T14:00:19.347Z,102357.34
2023-05-13T14:02:46.296Z,102352.63
2023-05-13T14:05:13.617Z,102344.22
2023-05-13T14:07:40.588Z,102346.19
2023-05-13T14:10:08.158Z,102342.69
2023-05-13T14:12:38.362Z,102356.53
2023-05-13T14:15:05.827Z,102348.81
2023-05-13T14:17:33.405Z,102347.31
2023-05-13T14:20:00.236Z,102349.16
2023-05-13T14:22:26.947Z,102353.19
2023-05-13T14:24:53.720Z,102340.75
2023-05-13T14:27:21.776Z,102332.22
2023-05-13T14:29:49.168Z,102341.44
2023-05-13T14:32:16.287Z,102336.94
2023-05-13T14:34:43.090Z,102329.94
2023-05-13T14:37:09.916Z,102327.69
2023-05-13T14:39:37.049Z,102328.63
2023-05-13T14:42:04.109Z,102335.16
2023-05-13T14:44:30.820Z,102341.97
2023-05-13T14:46:57.593Z,102336.94
2023-05-13T14:49:24.357Z,102335.72
2023-05-13T14:51:51.170Z,102325.34
2023-05-13T14:54:18.006Z,102337.25
2023-05-13T14:56:45.175Z,102334.53
2023-05-13T14:59:12.026Z,102329.56
2023-05-13T15:01:38.846Z,102324.84
2023-05-13T15:04:06.027Z,102325.09
2023-05-13T15:06:33.269Z,102332.47
2023-05-13T15:09:00.005Z,102334.66
2023-05-13T15:11:28.388Z,102326.72
2023-05-13T15:13:55.561Z,102329.56
2023-05-13T15:16:22.576Z,102327.25
2023-05-13T15:18:50.357Z,102330.38
2023-05-13T15:21:17.655Z,102330.88
2023-05-13T15:23:44.361Z,102335.41
2023-05-13T15:26:11.080Z,102335.47
2023-05-13T15:28:38.001Z,102336.25
2023-05-13T15:31:05.594Z,102326.16
2023-05-13T15:33:35.392Z,102323.44
2023-05-13T15:36:02.371Z,102328.63
2023-05-13T15:38:29.056Z,102327.44
2023-05-13T15:40:55.734Z,102326.69
2023-05-13T15:43:22.411Z,102329.81
2023-05-13T15:45:50.328Z,102321.28
2023-05-13T15:48:17.768Z,102320.69
2023-05-13T15:50:44.791Z,102320.78
2023-05-13T15:53:11.570Z,102308.00
2023-05-13T15:55:39.564Z,102309.59
2023-05-13T15:58:07.160Z,102315.72
2023-05-13T16:00:34.167Z,102311.56
2023-05-13T16:03:01.444Z,102313.53
2023-05-13T16:05:28.423Z,102307.47
2023-05-13T16:07:57.240Z,102294.56
2023-05-13T16:10:24.315Z,102299.91
2023-05-13T16:12:51.643Z,102306.47
2023-05-13T16:15:18.312Z,102302.41
2023-05-13T16:17:45.110Z,102305.16
2023-05-13T16:20:12.484Z,102307.63
2023-05-13T16:22:39.233Z,102303.16
2023-05-13T16:25:08.879Z,102295.56
2023-05-13T16:27:36.723Z,102293.69
2023-05-13T16:30:05.281Z,102304.47
2023-05-13T16:32:32.134Z,102295.69
2023-05-13T16:34:58.978Z,102297.28
2023-05-13T16:37:25.666Z,102300.06
2023-05-13T16:39:52.309Z,102297.47
2023-05-13T16:42:21.858Z,102295.09
2023-05-13T16:44:48.531Z,102294.44
2023-05-13T16:47:15.200Z,102295.41
2023-05-13T16:49:42.705Z,102296.94
2023-05-13T16:52:09.446Z,102298.47
2023-05-13T16:54:36.095Z,102305.88
2023-05-13T16:57:02.806Z,102301.22
2023-05-13T16:59:29.607Z,102296.69
2023-05-13T17:01:56.321Z,102301.94
2023-05-13T17:04:23.146Z,102295.34
2023-05-13T17:06:50.036Z,102290.56
2023-05-13T17:09:16.739Z,102302.50
2023-05-13T17:11:43.577Z,102312.94
2023-05-13T17:14:10.569Z,102305.56
2023-05-13T17:16:38.462Z,102309.66
2023-05-13T17:19:05.270Z,102321.00
2023-05-13T17:21:31.999Z,102314.63
2023-05-13T17:23:58.979Z,102308.41
2023-05-13T17:26:26.470Z,102310.28
2023-05-13T17:28:53.352Z,102312.16
2023-05-13T17:31:20.215Z,102303.78
2023-05-13T17:33:46.954Z,102307.59
2023-05-13T17:36:13.870Z,102308.31
2023-05-13T17:38:40.505Z,102307.16
2023-05-13T17:41:07.164Z,102306.34
2023-05-13T17:43:33.837Z,102301.00
2023-05-13T17:46:00.728Z,102306.22
2023-05-13T17:48:27.450Z,102305.84
2023-05-13T17:50:54.604Z,102301.50
2023-05-13T17:53:21.439Z,102309.13
2023-05-13T17:55:48.764Z,102309.78
2023-05-13T17:58:16.333Z,102309.47
2023-05-13T18:00:43.228Z,102313.03
2023-05-13T18:03:09.956Z,102311.84
2023-05-13T18:05:36.828Z,102314.69
2023-05-13T18:08:03.655Z,102316.56
2023-05-13T18:10:30.515Z,102315.31
2023-05-13T18:12:57.341Z,102320.91
2023-05-13T18:15:24.006Z,102321.38
2023-05-13T18:17:50.801Z,102322.81
2023-05-13T18:20:18.408Z,102323.72
2023-05-13T18:22:45.153Z,102327.38
2023-05-13T18:25:11.873Z,102318.19
2023-05-13T18:27:38.752Z,102323.72
2023-05-13T18:30:06.970Z,102320.03
2023-05-13T18:32:33.636Z,102325.84
2023-05-13T18:35:00.320Z,102332.84
2023-05-13T18:37:27.040Z,102326.78
2023-05-13T18:39:53.691Z,102335.22
2023-05-13T18:42:21.024Z,102331.09
2023-05-13T18:44:47.705Z,102321.56
2023-05-13T18:47:14.379Z,102327.09
2023-05-13T18:49:41.078Z,102329.81
2023-05-13T18:52:07.867Z,102332.47
2023-05-13T18:54:35.028Z,102327.84
2023-05-13T18:57:01.953Z,102329.63
2023-05-13T18:59:28.633Z,102339.13
2023-05-13T19:01:55.758Z,102337.97
2023-05-13T19:04:22.645Z,102337.69
2023-05-13T19:06:49.436Z,102334.75
2023-05-13T19:09:16.868Z,102335.38
2023-05-13T19:11:44.556Z,102331.66
2023-05-13T19:14:11.196Z,102342.31
2023-05-13T19:16:37.944Z,102341.22
2023-05-13T19:19:04.867Z,102339.28
2023-05-13T19:21:31.727Z,102336.47
2023-05-13T19:23:58.821Z,102335.41
2023-05-13T19:26:25.652Z,102329.59
2023-05-13T19:28:52.527Z,102331.91
2023-05-13T19:31:19.270Z,102328.78
2023-05-13T19:33:46.440Z,102332.88
2023-05-13T19:36:13.418Z,102322.63
2023-05-13T19:38:40.157Z,102325.78
2023-05-13T19:41:06.816Z,102330.69
2023-05-13T19:43:33.445Z,102334.72
2023-05-13T19:46:00.375Z,102326.28
2023-05-13T19:48:29.653Z,102331.09
2023-05-13T19:50:57.990Z,102330.63
2023-05-13T19:53:24.803Z,102324.78
2023-05-13T19:55:51.522Z,102334.84
2023-05-13T19:58:18.208Z,102337.81
2023-05-13T20:00:45.141Z,102332.69
2023-05-13T20:03:12.156Z,102329.41
2023-05-13T20:05:41.001Z,102334.16
2023-05-13T20:08:07.860Z,102341.56
2023-05-13T20:10:36.818Z,102331.16
2023-05-13T20:13:04.868Z,102338.56
2023-05-13T20:15:32.159Z,102341.56
2023-05-13T20:17:59.091Z,102337.50
2023-05-13T20:20:25.904Z,102336.78
2023-05-13T20:22:52.689Z,102337.97
2023-05-13T20:25:19.539Z,102339.16
2023-05-13T20:27:46.196Z,102336.69
2023-05-13T20:30:13.880Z,102335.19
2023-05-13T20:32:40.647Z,102335.56
2023-05-13T20:35:08.757Z,102337.66
2023-05-13T20:37:35.664Z,102339.88
2023-05-13T20:40:02.585Z,102336.59
2023-05-13T20:42:29.216Z,102334.00
2023-05-13T20:44:56.018Z,102335.22
2023-05-13T20:47:22.750Z,102334.72
2023-05-13T20:49:49.485Z,102335.97
2023-05-13T20:52:16.368Z,102333.56
2023-05-13T20:54:43.121Z,102332.91
2023-05-13T20:57:09.782Z,102329.53
2023-05-13T20:59:36.487Z,102328.78
2023-05-13T21:02:03.331Z,102333.56
2023-05-13T21:04:30.020Z,102327.66
2023-05-13T21:06:57.383Z,102324.41
2023-05-13T21:09:24.021Z,102331.75
2023-05-13T21:11:50.702Z,102323.91
2023-05-13T21:14:17.357Z,102319.59
2023-05-13T21:16:44.054Z,102318.84
2023-05-13T21:19:19.807Z,102326.00
2023-05-13T21:21:46.433Z,102322.63
2023-05-13T21:24:14.202Z,102322.84
2023-05-13T21:26:40.850Z,102324.91
2023-05-13T21:29:07.557Z,102324.19
2023-05-13T21:31:34.306Z,102327.03
2023-05-13T21:34:01.053Z,102331.59
2023-05-13T21:36:27.794Z,102335.31
2023-05-13T21:38:54.543Z,102330.25
2023-05-13T21:41:22.126Z,102336.75
2023-05-13T21:43:48.781Z,102329.84
2023-05-13T21:46:15.526Z,102325.53
2023-05-13T21:48:42.208Z,102328.34
2023-05-13T21:51:08.914Z,102327.63
2023-05-13T21:53:35.750Z,102325.97
2023-05-13T21:56:03.106Z,102325.09
2023-05-13T21:58:29.762Z,102326.84
2023-05-13T22:00:56.764Z,102317.81
2023-05-13T22:03:23.542Z,102316.88
2023-05-13T22:05:50.315Z,102313.28
2023-05-13T22:08:17.043Z,102312.47
2023-05-13T22:10:43.776Z,102307.28
2023-05-13T22:13:10.666Z,102309.31
2023-05-13T22:15:37.376Z,102314.69
2023-05-13T22:18:04.247Z,102313.88
2023-05-13T22:20:31.044Z,102308.53
2023-05-13T22:22:57.741Z,102310.41
2023-05-13T22:25:24.419Z,102315.06
2023-05-13T22:27:51.184Z,102309.84
2023-05-13T22:30:18.239Z,102304.53
2023-05-13T22:32:44.952Z,102314.53
2023-05-13T22:35:11.612Z,102315.59
2023-05-13T22:37:38.292Z,102306.78
2023-05-13T22:40:06.003Z,102301.59
2023-05-13T22:42:32.676Z,102306.19
2023-05-13T22:44:59.363Z,102300.06
2023-05-13T22:47:26.352Z,102299.34
2023-05-13T22:49:53.057Z,102304.91
2023-05-13T22:52:19.954Z,102299.78
2023-05-13T22:54:46.598Z,102305.25
2023-05-13T22:57:13.262Z,102306.34
2023-05-13T22:59:39.974Z,102301.13
2023-05-13T23:02:06.767Z,102302.06
2023-05-13T23:04:33.658Z,102307.47
2023-05-13T23:07:00.478Z,102298.66
2023-05-13T23:09:27.120Z,102299.66
2023-05-13T23:11:53.745Z,102302.47
2023-05-13T23:14:20.806Z,102305.41
2023-05-13T23:16:47.651Z,102302.88
2023-05-13T23:19:14.427Z,102299.47
2023-05-13T23:21:41.167Z,102298.59
2023-05-13T23:24:07.913Z,102298.72
2023-05-13T23:26:34.577Z,102299.66
2023-05-13T23:29:01.233Z,102290.84
2023-05-13T23:31:28.035Z,102289.97
2023-05-13T23:33:54.727Z,102293.59
2023-05-13T23:36:21.494Z,102288.41
2023-05-13T23:38:48.318Z,102288.53
2023-05-13T23:41:14.961Z,102290.34
2023-05-13T23:43:41.652Z,102285.00
2023-05-13T23:46:08.470Z,102295.66
2023-05-13T23:48:35.210Z,102286.69
2023-05-13T23:51:01.932Z,102280.50
2023-05-13T23:53:28.585Z,102284.97
2023-05-13T23:55:55.312Z,102279.75
2023-05-13T23:58:21.946Z,102275.47
